createdAt,value
2023-03-08T00:04:40.092Z,8.67
2023-03-08T00:09:41.851Z,8.27
2023-03-08T00:14:43.506Z,6.80
2023-03-08T00:19:45.192Z,6.60
2023-03-08T00:24:46.935Z,7.37
2023-03-08T00:29:48.562Z,5.90
2023-03-08T00:34:51.239Z,6.97
2023-03-08T00:39:54.084Z,5.43
2023-03-08T00:44:55.733Z,6.57
2023-03-08T00:49:58.091Z,6.13
2023-03-08T00:54:59.703Z,6.37
2023-03-08T01:00:02.203Z,6.67
2023-03-08T01:05:04.965Z,7.32
2023-03-08T01:10:07.070Z,8.63
2023-03-08T01:15:09.019Z,8.75
2023-03-08T01:20:11.239Z,7.45
2023-03-08T01:25:15.018Z,8.98
2023-03-08T01:30:17.076Z,8.57
2023-03-08T01:35:19.421Z,7.57
2023-03-08T01:40:23.157Z,8.52
2023-03-08T01:46:13.051Z,9.10
2023-03-08T01:51:21.897Z,11.00
2023-03-08T01:56:24.721Z,9.73
2023-03-08T02:01:26.722Z,8.47
2023-03-08T02:06:32.090Z,8.87
2023-03-08T02:11:35.830Z,8.48
2023-03-08T02:16:38.055Z,8.57
2023-03-08T02:21:39.814Z,8.57
2023-03-08T02:26:41.495Z,8.75
2023-03-08T02:31:43.235Z,7.70
2023-03-08T02:36:44.849Z,9.68
2023-03-08T02:41:46.462Z,10.00
2023-03-08T02:46:48.644Z,9.73
2023-03-08T02:51:50.436Z,10.23
2023-03-08T02:56:52.105Z,10.70
2023-03-08T03:01:53.927Z,10.43
2023-03-08T03:06:57.158Z,11.27
2023-03-08T03:11:59.155Z,13.67
2023-03-08T03:17:01.467Z,12.48
2023-03-08T03:22:03.651Z,14.17
2023-03-08T03:27:06.103Z,12.80
2023-03-08T03:32:09.768Z,16.23
2023-03-08T03:37:11.700Z,13.00
2023-03-08T03:42:16.433Z,13.65
2023-03-08T03:47:25.765Z,10.37
2023-03-08T03:52:31.787Z,10.03
2023-03-08T03:57:37.897Z,10.63
2023-03-08T04:02:40.640Z,12.33
2023-03-08T04:07:45.339Z,12.13
2023-03-08T04:12:50.691Z,12.23
2023-03-08T04:17:54.014Z,12.75
2023-03-08T04:22:57.931Z,12.43
2023-03-08T04:28:06.043Z,12.77
2023-03-08T04:33:08.107Z,13.93
2023-03-08T04:38:18.926Z,14.82
2023-03-08T04:43:23.835Z,15.05
2023-03-08T04:48:26.579Z,14.35
2023-03-08T04:53:29.566Z,17.33
2023-03-08T04:58:31.647Z,14.85
2023-03-08T05:03:33.578Z,13.07
2023-03-08T05:08:36.238Z,16.92
2023-03-08T05:13:40.345Z,15.98
2023-03-08T05:18:43.826Z,16.17
2023-03-08T05:23:47.020Z,16.25
2023-03-08T05:28:51.754Z,13.43
2023-03-08T05:33:56.467Z,17.43
2023-03-08T05:39:11.729Z,18.37
2023-03-08T05:44:23.989Z,17.88
2023-03-08T05:49:28.859Z,12.53
2023-03-08T05:54:31.630Z,14.30
2023-03-08T05:59:38.129Z,12.35
2023-03-08T06:04:43.660Z,11.95
2023-03-08T06:09:47.205Z,14.60
2023-03-08T06:14:51.112Z,12.73
2023-03-08T06:19:55.558Z,17.07
2023-03-08T06:24:57.925Z,13.32
2023-03-08T06:30:08.924Z,11.98
2023-03-08T06:35:11.208Z,15.00
2023-03-08T06:40:20.852Z,15.07
2023-03-08T06:45:22.594Z,12.60
2023-03-08T06:50:24.372Z,11.50
2023-03-08T06:55:26.665Z,13.25
2023-03-08T07:00:29.529Z,11.82
2023-03-08T07:05:31.331Z,11.07
2023-03-08T07:10:33.449Z,13.23
2023-03-08T07:15:39.002Z,8.48
2023-03-08T07:20:40.634Z,6.68
2023-03-08T07:25:42.282Z,6.90
2023-03-08T07:30:52.361Z,5.85
2023-03-08T07:35:54.017Z,6.78
2023-03-08T07:40:56.669Z,5.93
2023-03-08T07:46:02.688Z,10.15
2023-03-08T07:51:07.392Z,14.13
2023-03-08T07:56:09.673Z,10.98
2023-03-08T08:01:12.574Z,11.75
2023-03-08T08:06:14.232Z,12.88
2023-03-08T08:11:17.715Z,12.63
2023-03-08T08:16:19.415Z,8.63
2023-03-08T08:21:21.769Z,7.65
2023-03-08T08:26:23.798Z,8.35
2023-03-08T08:31:31.892Z,8.27
2023-03-08T08:36:33.539Z,9.88
2023-03-08T08:41:35.112Z,10.15
2023-03-08T08:46:36.723Z,9.48
2023-03-08T08:51:38.370Z,12.75
2023-03-08T08:56:42.991Z,12.38
2023-03-08T09:01:44.921Z,10.05
2023-03-08T09:06:47.306Z,9.93
2023-03-08T09:11:54.976Z,8.80
2023-03-08T09:16:57.099Z,9.65
2023-03-08T09:21:58.802Z,9.82
2023-03-08T09:27:00.418Z,8.07
2023-03-08T09:32:02.073Z,8.77
2023-03-08T09:37:05.812Z,9.25
2023-03-08T09:42:27.634Z,8.10
2023-03-08T09:47:41.831Z,8.85
2023-03-08T09:52:50.559Z,12.05
2023-03-08T09:57:54.268Z,9.82
2023-03-08T10:03:36.410Z,10.18
2023-03-08T10:09:06.494Z,11.60
2023-03-08T10:14:19.513Z,29.90
2023-03-08T10:19:31.816Z,26.80
2023-03-08T10:24:48.532Z,20.42
2023-03-08T10:29:58.884Z,15.23
2023-03-08T10:35:04.578Z,12.13
2023-03-08T10:40:10.968Z,12.25
2023-03-08T10:45:12.654Z,14.15
2023-03-08T10:50:18.590Z,15.50
2023-03-08T10:55:23.401Z,15.13
2023-03-08T11:00:37.041Z,14.65
2023-03-08T11:05:39.433Z,17.52
2023-03-08T11:10:41.050Z,18.75
2023-03-08T11:15:52.280Z,20.58
2023-03-08T11:21:00.138Z,18.42
2023-03-08T11:26:20.518Z,19.95
2023-03-08T11:31:50.708Z,18.50
2023-03-08T11:37:12.498Z,15.00
2023-03-08T11:42:14.032Z,15.40
2023-03-08T11:47:34.848Z,15.35
2023-03-08T11:52:58.011Z,15.60
2023-03-08T11:58:31.132Z,15.30
2023-03-08T12:03:47.172Z,13.82
2023-03-08T12:08:49.617Z,15.38
2023-03-08T12:13:57.892Z,13.85
2023-03-08T12:19:31.922Z,12.98
2023-03-08T12:24:42.641Z,14.10
2023-03-08T12:29:57.444Z,14.45
2023-03-08T12:35:23.800Z,14.27
2023-03-08T12:40:27.883Z,12.13
2023-03-08T12:45:31.050Z,13.27
2023-03-08T12:50:40.541Z,14.32
2023-03-08T12:55:43.374Z,12.32
2023-03-08T13:00:45.160Z,12.00
2023-03-08T13:05:49.714Z,17.17
2023-03-08T13:11:00.966Z,12.90
2023-03-08T13:16:15.765Z,12.48
2023-03-08T13:21:27.856Z,12.20
2023-03-08T13:26:51.108Z,11.23
2023-03-08T13:31:55.702Z,13.55
2023-03-08T13:36:57.805Z,16.63
2023-03-08T13:42:09.545Z,13.32
2023-03-08T13:47:34.327Z,16.70
2023-03-08T13:52:39.058Z,16.80
2023-03-08T13:57:42.250Z,17.85
2023-03-08T14:02:46.550Z,18.65
2023-03-08T14:08:03.239Z,18.05
2023-03-08T14:13:07.113Z,21.63
2023-03-08T14:18:22.033Z,17.98
2023-03-08T14:23:25.143Z,18.95
2023-03-08T14:29:13.382Z,22.10
2023-03-08T14:34:25.945Z,22.88
2023-03-08T14:39:30.615Z,21.85
2023-03-08T14:44:32.286Z,22.25
2023-03-08T14:49:33.935Z,21.17
2023-03-08T14:54:38.534Z,21.42
2023-03-08T14:59:41.501Z,22.77
2023-03-08T15:04:44.945Z,23.80
2023-03-08T15:09:48.617Z,19.80
2023-03-08T15:14:50.228Z,19.58
2023-03-08T15:19:51.893Z,22.98
2023-03-08T15:24:53.818Z,22.40
2023-03-08T15:29:55.426Z,20.35
2023-03-08T15:34:57.029Z,24.50
2023-03-08T15:39:58.666Z,21.40
2023-03-08T15:45:00.321Z,22.10
2023-03-08T15:50:02.507Z,23.30
2023-03-08T15:55:04.510Z,19.60
2023-03-08T16:00:11.624Z,21.02
2023-03-08T16:05:14.771Z,21.40
2023-03-08T16:10:16.634Z,22.70
2023-03-08T16:15:19.104Z,20.65
2023-03-08T16:20:23.177Z,23.15
2023-03-08T16:25:24.974Z,19.10
2023-03-08T16:30:26.694Z,20.70
2023-03-08T16:35:28.365Z,21.75
2023-03-08T16:40:31.293Z,24.63
2023-03-08T16:45:33.013Z,24.83
2023-03-08T16:50:34.650Z,25.60
2023-03-08T16:55:36.517Z,27.52
2023-03-08T17:00:38.284Z,28.20
2023-03-08T17:05:45.721Z,27.77
2023-03-08T17:10:47.371Z,27.52
2023-03-08T17:15:49.039Z,28.17
2023-03-08T17:20:53.278Z,28.40
2023-03-08T17:25:55.008Z,28.23
2023-03-08T17:30:56.700Z,30.73
2023-03-08T17:36:02.143Z,32.75
2023-03-08T17:41:09.077Z,32.85
2023-03-08T17:46:18.233Z,31.05
2023-03-08T17:51:26.193Z,28.88
2023-03-08T17:56:30.509Z,40.58
2023-03-08T18:01:32.459Z,38.58
2023-03-08T18:06:35.404Z,45.10
2023-03-08T18:11:40.973Z,42.75
2023-03-08T18:16:44.951Z,34.85
2023-03-08T18:21:54.040Z,38.53
2023-03-08T18:26:58.120Z,36.95
2023-03-08T18:32:00.138Z,37.67
2023-03-08T18:37:02.216Z,40.20
2023-03-08T18:42:04.265Z,40.90
2023-03-08T18:47:06.231Z,41.95
2023-03-08T18:52:08.038Z,34.55
2023-03-08T18:57:09.943Z,38.28
2023-03-08T19:02:12.101Z,46.33
2023-03-08T19:07:14.062Z,50.03
2023-03-08T19:12:15.975Z,49.35
2023-03-08T19:17:17.855Z,51.03
2023-03-08T19:22:19.855Z,40.63
2023-03-08T19:27:21.909Z,40.28
2023-03-08T19:32:23.920Z,37.55
2023-03-08T19:37:25.888Z,28.58
2023-03-08T19:42:27.852Z,26.63
2023-03-08T19:47:29.674Z,22.95
2023-03-08T19:52:31.678Z,25.77
2023-03-08T19:57:33.776Z,25.02
2023-03-08T20:02:35.694Z,21.15
2023-03-08T20:07:38.932Z,20.50
2023-03-08T20:12:40.727Z,18.35
2023-03-08T20:17:42.545Z,18.88
2023-03-08T20:22:45.096Z,18.55
2023-03-08T20:27:46.960Z,17.83
2023-03-08T20:32:50.215Z,18.95
2023-03-08T20:37:52.048Z,18.23
2023-03-08T20:42:57.821Z,18.63
2023-03-08T20:47:59.716Z,17.30
2023-03-08T20:53:01.615Z,20.02
2023-03-08T20:58:03.572Z,20.67
2023-03-08T21:03:05.497Z,22.45
2023-03-08T21:08:07.360Z,23.95
2023-03-08T21:13:13.045Z,23.67
2023-03-08T21:18:14.934Z,20.42
2023-03-08T21:23:21.005Z,26.40
2023-03-08T21:28:22.967Z,24.40
2023-03-08T21:33:24.996Z,19.27
2023-03-08T21:38:26.842Z,21.20
2023-03-08T21:43:28.915Z,21.40
2023-03-08T21:48:30.683Z,18.98
2023-03-08T21:53:32.779Z,21.90
2023-03-08T21:58:36.014Z,21.27
2023-03-08T22:03:37.824Z,18.55
2023-03-08T22:08:39.640Z,17.88
2023-03-08T22:13:41.602Z,16.23
2023-03-08T22:18:43.481Z,15.90
2023-03-08T22:23:45.511Z,16.77
2023-03-08T22:28:47.684Z,15.05
2023-03-08T22:33:49.562Z,11.35
2023-03-08T22:38:51.381Z,11.00
2023-03-08T22:43:54.364Z,13.18
2023-03-08T22:48:58.243Z,11.45
2023-03-08T22:54:04.046Z,12.43
2023-03-08T22:59:05.855Z,18.90
2023-03-08T23:04:08.901Z,17.67
2023-03-08T23:09:12.742Z,14.38
2023-03-08T23:14:14.886Z,12.93
2023-03-08T23:19:19.886Z,12.32
2023-03-08T23:24:21.734Z,13.40
2023-03-08T23:29:23.513Z,11.15
2023-03-08T23:34:25.490Z,11.50
2023-03-08T23:39:27.340Z,13.82
2023-03-08T23:44:29.170Z,14.18
2023-03-08T23:49:31.085Z,15.85
2023-03-08T23:54:32.938Z,12.60
2023-03-08T23:59:34.771Z,13.18
